Time;durP1;ratioP1;P1;durP2;ratioP2;P2;SDS_P1;SDS_P2;PMS_P1;PMS_P2;Temp;Humidity;BMP_temperature;BMP_pressure;BME280_temperature;BME280_humidity;BME280_pressure;Samples;Min_cycle;Max_cycle;Signal;HPM_P1;HPM_P2
2023/01/19 00:02:01;;;;;;;17.77;13.00;;;0.50;99.90;;;;;;6270991;28;20045;-77
2023/01/19 00:05:03;;;;;;;19.55;12.98;;;0.50;99.90;;;;;;6271079;28;20056;-78
2023/01/19 00:08:14;;;;;;;19.80;11.95;;;0.60;99.90;;;;;;6268291;28;20045;-78
2023/01/19 00:11:16;;;;;;;17.38;12.63;;;0.60;99.90;;;;;;6262087;28;20084;-77
2023/01/19 00:14:18;;;;;;;16.42;10.55;;;0.70;99.90;;;;;;6246564;28;20053;-78
2023/01/19 00:17:20;;;;;;;14.63;10.77;;;0.70;99.90;;;;;;6244727;28;20069;-78
2023/01/19 00:20:21;;;;;;;18.15;12.38;;;0.70;99.90;;;;;;6262722;28;20056;-78
2023/01/19 00:23:24;;;;;;;15.05;10.45;;;0.70;99.90;;;;;;6269071;28;20053;-77
2023/01/19 00:26:26;;;;;;;18.90;9.35;;;0.70;99.90;;;;;;6269571;28;20058;-77
2023/01/19 00:29:29;;;;;;;19.50;10.13;;;0.70;99.90;;;;;;6269533;28;20052;-78
2023/01/19 00:32:31;;;;;;;13.43;9.43;;;0.70;99.90;;;;;;6270105;28;20491;-77
2023/01/19 00:35:33;;;;;;;16.40;10.30;;;0.80;99.90;;;;;;6269918;28;20052;-78
2023/01/19 00:38:37;;;;;;;13.38;9.93;;;0.80;99.90;;;;;;6270156;28;20045;-78
2023/01/19 00:45:05;;;;;;;18.13;11.60;;;0.80;99.90;;;;;;6259152;28;20048;-78
2023/01/19 00:48:07;;;;;;;18.58;11.77;;;0.80;99.90;;;;;;6269256;28;20053;-78
2023/01/19 00:51:08;;;;;;;18.80;10.70;;;0.80;99.90;;;;;;6274842;28;20049;-78
2023/01/19 00:54:11;;;;;;;16.17;10.93;;;0.80;99.90;;;;;;6275332;28;20490;-77
2023/01/19 00:57:14;;;;;;;14.10;9.55;;;0.80;99.90;;;;;;6273280;28;20048;-76
2023/01/19 01:00:19;;;;;;;17.85;10.82;;;0.80;99.90;;;;;;6273187;28;20048;-76
2023/01/19 01:03:26;;;;;;;21.88;10.18;;;0.80;99.90;;;;;;6272626;28;20048;-77
2023/01/19 01:06:28;;;;;;;13.48;10.95;;;0.80;99.90;;;;;;6272471;28;20048;-77
2023/01/19 01:09:31;;;;;;;14.90;9.82;;;0.80;99.90;;;;;;6270981;28;20056;-77
2023/01/19 01:12:33;;;;;;;16.02;9.40;;;0.80;99.90;;;;;;6272892;28;20053;-77
2023/01/19 01:15:34;;;;;;;10.70;8.55;;;0.80;99.90;;;;;;6272178;28;20044;-77
2023/01/19 01:18:36;;;;;;;16.92;9.30;;;0.90;99.90;;;;;;6271729;28;20056;-77
2023/01/19 01:21:38;;;;;;;13.63;9.45;;;0.90;99.90;;;;;;6272466;28;20060;-77
2023/01/19 01:24:41;;;;;;;12.95;8.80;;;0.90;99.90;;;;;;6271180;28;20052;-78
2023/01/19 01:27:44;;;;;;;16.02;9.43;;;1.00;99.90;;;;;;6265089;28;20041;-77
2023/01/19 01:30:45;;;;;;;14.48;9.52;;;1.00;99.90;;;;;;6272089;28;20041;-77
2023/01/19 01:33:47;;;;;;;14.18;9.50;;;1.00;99.90;;;;;;6272193;28;20057;-78
2023/01/19 01:36:49;;;;;;;25.20;9.90;;;1.00;99.90;;;;;;6271635;28;20107;-77
2023/01/19 01:39:52;;;;;;;12.27;8.73;;;1.00;99.90;;;;;;6272263;28;20048;-76
2023/01/19 01:42:53;;;;;;;17.13;11.45;;;1.00;99.90;;;;;;6272540;28;20056;-77
2023/01/19 01:45:55;;;;;;;14.40;10.88;;;0.90;99.90;;;;;;6272246;28;20041;-77
2023/01/19 01:49:03;;;;;;;13.40;9.45;;;0.90;99.90;;;;;;6271179;28;20555;-77
2023/01/19 01:52:04;;;;;;;;;;;1.00;99.90;;;;;;6271886;28;20052;-77
2023/01/19 01:55:09;;;;;;;14.50;10.38;;;1.00;99.90;;;;;;6271891;28;20296;-76
2023/01/19 01:58:12;;;;;;;15.38;8.68;;;1.10;99.90;;;;;;6271057;28;20056;-76
2023/01/19 02:04:33;;;;;;;13.50;10.13;;;1.20;99.90;;;;;;6271587;28;20053;-76
2023/01/19 02:14:23;;;;;;;19.38;10.40;;;1.30;99.90;;;;;;6271681;28;20131;-77
2023/01/19 02:17:24;;;;;;;15.77;9.85;;;1.30;99.90;;;;;;6270733;28;20049;-76
2023/01/19 02:20:30;;;;;;;15.88;10.45;;;1.40;99.90;;;;;;6271661;28;20045;-77
2023/01/19 02:23:41;;;;;;;16.55;10.38;;;1.40;99.90;;;;;;6271082;28;20144;-77
2023/01/19 02:26:46;;;;;;;18.13;10.85;;;1.40;99.90;;;;;;6270658;28;20391;-77
2023/01/19 02:29:47;;;;;;;14.38;10.77;;;1.40;99.90;;;;;;6270908;28;20049;-77
2023/01/19 02:32:49;;;;;;;18.45;10.68;;;1.40;99.90;;;;;;6270955;28;20049;-77
2023/01/19 02:35:53;;;;;;;15.85;10.20;;;1.40;99.90;;;;;;6271362;28;20052;-76
2023/01/19 02:38:58;;;;;;;13.57;9.93;;;1.40;99.90;;;;;;6269854;28;20049;-76
2023/01/19 02:42:03;;;;;;;16.42;10.73;;;1.40;99.90;;;;;;6270785;28;20418;-76
2023/01/19 02:45:08;;;;;;;17.48;11.20;;;1.40;99.90;;;;;;6270493;28;20040;-76
2023/01/19 02:48:10;;;;;;;14.43;10.48;;;1.40;99.90;;;;;;6269992;28;20096;-76
2023/01/19 02:51:15;;;;;;;15.50;10.65;;;1.40;99.90;;;;;;6270592;28;20041;-76
2023/01/19 02:54:33;;;;;;;14.43;10.32;;;1.40;99.90;;;;;;6271018;28;20576;-76
2023/01/19 02:57:47;;;;;;;15.95;9.88;;;1.40;99.90;;;;;;6270145;28;20067;-76
2023/01/19 03:00:59;;;;;;;11.40;9.25;;;1.40;99.90;;;;;;6270170;28;20041;-76
2023/01/19 03:04:12;;;;;;;13.65;9.43;;;1.40;99.90;;;;;;6270488;28;20498;-76
2023/01/19 03:07:20;;;;;;;21.27;10.50;;;1.40;99.90;;;;;;6270113;28;20049;-77
2023/01/19 03:10:30;;;;;;;12.07;9.45;;;1.40;99.90;;;;;;6267191;28;20060;-76
2023/01/19 03:13:42;;;;;;;16.17;11.60;;;1.40;99.90;;;;;;6269290;28;20059;-77
2023/01/19 03:16:47;;;;;;;14.45;10.57;;;1.40;99.90;;;;;;6269663;28;20041;-77
2023/01/19 03:19:52;;;;;;;18.02;11.95;;;1.50;99.90;;;;;;6269281;28;20537;-77
2023/01/19 03:22:58;;;;;;;15.68;11.18;;;1.40;99.90;;;;;;6270341;28;20048;-77
2023/01/19 03:26:04;;;;;;;15.93;10.38;;;1.40;99.90;;;;;;6270065;28;20052;-77
2023/01/19 03:29:08;;;;;;;12.68;9.63;;;1.30;99.90;;;;;;6268817;28;20128;-78
2023/01/19 03:32:15;;;;;;;16.25;10.52;;;1.30;99.90;;;;;;6270450;28;20045;-77
2023/01/19 03:35:20;;;;;;;14.93;10.88;;;1.30;99.90;;;;;;6269538;28;20044;-77
2023/01/19 03:38:25;;;;;;;14.90;9.85;;;1.20;99.90;;;;;;6269361;28;20140;-77
2023/01/19 03:41:31;;;;;;;22.35;14.80;;;1.20;99.90;;;;;;6269726;28;20418;-77
2023/01/19 03:44:36;;;;;;;16.10;10.30;;;1.20;99.90;;;;;;6269558;28;20045;-77
2023/01/19 03:47:38;;;;;;;16.35;10.88;;;1.20;99.90;;;;;;6268850;28;20072;-77
2023/01/19 03:50:40;;;;;;;19.63;10.38;;;1.20;99.90;;;;;;6269125;28;20045;-77
2023/01/19 03:53:42;;;;;;;13.88;10.52;;;1.20;99.90;;;;;;6269999;28;20049;-77
2023/01/19 03:56:45;;;;;;;15.95;11.88;;;1.20;99.90;;;;;;6269711;28;20033;-77
2023/01/19 03:59:47;;;;;;;17.58;10.23;;;1.20;99.90;;;;;;6268599;28;20045;-77
2023/01/19 04:02:48;;;;;;;15.35;10.45;;;1.20;99.90;;;;;;6269194;28;20045;-77
2023/01/19 04:05:50;;;;;;;16.33;11.18;;;1.20;99.90;;;;;;6269850;28;20048;-77
2023/01/19 04:08:52;;;;;;;22.45;12.05;;;1.10;99.90;;;;;;6268277;28;20052;-77
2023/01/19 04:11:56;;;;;;;15.57;10.82;;;1.10;99.90;;;;;;6267266;28;20598;-77
2023/01/19 04:14:57;;;;;;;15.70;12.80;;;1.10;99.90;;;;;;6269873;28;20052;-76
2023/01/19 04:18:00;;;;;;;21.75;12.80;;;1.10;99.90;;;;;;6269173;28;20045;-77
2023/01/19 04:21:03;;;;;;;25.55;11.55;;;1.20;99.90;;;;;;6269247;28;20554;-78
2023/01/19 04:24:05;;;;;;;21.50;13.65;;;1.20;99.90;;;;;;6270422;28;20048;-77
2023/01/19 04:27:08;;;;;;;25.15;12.65;;;1.20;99.90;;;;;;6274549;28;20041;-77
2023/01/19 04:30:11;;;;;;;15.70;11.77;;;1.20;99.90;;;;;;6275072;28;20585;-78
2023/01/19 04:33:12;;;;;;;22.98;12.45;;;1.20;99.90;;;;;;6276760;28;20059;-77
2023/01/19 04:36:14;;;;;;;17.27;11.82;;;1.20;99.90;;;;;;6275289;28;20124;-77
2023/01/19 04:39:16;;;;;;;16.05;11.13;;;1.10;99.90;;;;;;6272926;28;20049;-77
2023/01/19 04:42:19;;;;;;;19.17;10.23;;;1.10;99.90;;;;;;6273295;28;20049;-77
2023/01/19 04:45:20;;;;;;;20.90;12.20;;;1.00;99.90;;;;;;6273591;28;20049;-77
2023/01/19 04:48:22;;;;;;;17.58;13.23;;;1.00;99.90;;;;;;6272225;28;20041;-77
2023/01/19 04:51:24;;;;;;;21.00;12.40;;;0.90;99.90;;;;;;6273637;28;20049;-77
2023/01/19 04:54:26;;;;;;;21.08;12.90;;;0.80;99.90;;;;;;6272983;28;20171;-77
2023/01/19 04:57:29;;;;;;;18.73;12.98;;;0.80;99.90;;;;;;6272778;28;20048;-77
2023/01/19 05:00:31;;;;;;;18.38;15.65;;;0.70;99.90;;;;;;6273008;28;20044;-77
2023/01/19 05:03:33;;;;;;;17.50;12.55;;;0.80;99.90;;;;;;6272736;28;20049;-77
2023/01/19 05:06:35;;;;;;;24.20;13.90;;;0.80;99.90;;;;;;6272251;28;20514;-77
2023/01/19 05:09:36;;;;;;;20.20;12.82;;;0.80;99.90;;;;;;6273418;28;20053;-77
2023/01/19 05:12:40;;;;;;;21.88;13.18;;;0.80;99.90;;;;;;6271121;28;20037;-77
2023/01/19 05:15:42;;;;;;;21.20;12.38;;;0.80;99.90;;;;;;6272348;28;20045;-77
2023/01/19 05:18:44;;;;;;;22.45;11.88;;;0.80;99.90;;;;;;6271811;28;20047;-77
2023/01/19 05:21:45;;;;;;;19.58;13.82;;;0.90;99.90;;;;;;6273121;28;20045;-77
2023/01/19 05:24:47;;;;;;;19.20;13.40;;;0.90;99.90;;;;;;6272440;28;20049;-77
2023/01/19 05:27:50;;;;;;;21.67;13.60;;;0.90;99.90;;;;;;6272037;28;20049;-77
2023/01/19 05:30:53;;;;;;;20.63;13.75;;;1.00;99.90;;;;;;6272303;28;20048;-77
2023/01/19 05:33:55;;;;;;;16.92;12.32;;;1.00;99.90;;;;;;6272843;28;20510;-77
2023/01/19 05:36:56;;;;;;;14.85;10.10;;;1.00;99.90;;;;;;6271961;28;20055;-77
2023/01/19 05:39:58;;;;;;;16.75;11.45;;;1.00;99.90;;;;;;6271512;28;20052;-77
2023/01/19 05:43:03;;;;;;;16.88;11.48;;;1.10;99.90;;;;;;6271263;28;20045;-77
2023/01/19 05:46:06;;;;;;;17.25;10.32;;;1.20;99.90;;;;;;6272486;28;20056;-77
2023/01/19 05:49:08;;;;;;;16.48;10.52;;;1.20;99.90;;;;;;6271205;28;20553;-77
2023/01/19 05:52:09;;;;;;;19.08;10.20;;;1.20;99.90;;;;;;6271615;28;20466;-77
2023/01/19 05:55:11;;;;;;;20.80;10.77;;;1.20;99.90;;;;;;6271810;28;20076;-77
2023/01/19 05:58:14;;;;;;;15.35;10.48;;;1.20;99.90;;;;;;6271331;28;20049;-77
2023/01/19 06:01:16;;;;;;;16.48;11.48;;;1.10;99.90;;;;;;6271270;28;20048;-77
2023/01/19 06:04:17;;;;;;;14.70;9.57;;;1.10;99.90;;;;;;6272175;28;20045;-77
2023/01/19 06:07:19;;;;;;;19.35;12.43;;;1.00;99.90;;;;;;6270420;28;20049;-77
2023/01/19 06:10:21;;;;;;;14.50;10.50;;;1.00;99.90;;;;;;6271229;28;20480;-77
2023/01/19 06:13:24;;;;;;;20.80;12.10;;;1.00;99.90;;;;;;6269973;28;20048;-76
2023/01/19 06:16:26;;;;;;;18.02;11.80;;;1.00;99.90;;;;;;6271361;28;20045;-76
2023/01/19 06:19:27;;;;;;;18.42;11.07;;;1.00;99.90;;;;;;6270090;28;20045;-76
2023/01/19 06:22:29;;;;;;;17.67;11.73;;;1.00;99.90;;;;;;6271945;28;20064;-76
2023/01/19 06:25:30;;;;;;;17.77;11.03;;;1.00;99.90;;;;;;6271033;28;20387;-77
2023/01/19 06:28:34;;;;;;;19.50;11.80;;;1.00;99.90;;;;;;6269885;28;20519;-77
2023/01/19 06:31:35;;;;;;;14.50;11.10;;;1.10;99.90;;;;;;6271011;28;20124;-78
2023/01/19 06:34:39;;;;;;;16.33;9.82;;;1.20;99.90;;;;;;6271746;28;20040;-79
2023/01/19 06:37:41;;;;;;;17.65;10.80;;;1.20;99.90;;;;;;6272079;28;20411;-78
2023/01/19 06:40:43;;;;;;;15.20;11.32;;;1.30;99.90;;;;;;6272593;28;20045;-79
2023/01/19 06:43:46;;;;;;;12.23;9.38;;;1.30;99.90;;;;;;6272101;28;20059;-78
2023/01/19 06:46:47;;;;;;;15.35;10.95;;;1.40;99.90;;;;;;6271305;28;20041;-78
2023/01/19 06:49:49;;;;;;;18.30;11.07;;;1.40;99.90;;;;;;6272124;28;20049;-78
2023/01/19 06:52:51;;;;;;;14.00;9.85;;;1.40;99.90;;;;;;6271566;28;20052;-78
2023/01/19 06:55:53;;;;;;;16.35;11.00;;;1.50;99.90;;;;;;6271853;28;20048;-78
2023/01/19 06:58:56;;;;;;;15.63;9.10;;;1.40;99.90;;;;;;6271716;28;20053;-79
2023/01/19 07:01:58;;;;;;;12.07;9.02;;;1.50;99.90;;;;;;6272267;28;20446;-79
2023/01/19 07:04:59;;;;;;;17.00;9.75;;;1.50;99.90;;;;;;6272259;28;20044;-80
2023/01/19 07:08:02;;;;;;;16.08;10.85;;;1.50;99.90;;;;;;6271190;28;20041;-79
2023/01/19 07:11:05;;;;;;;13.77;10.30;;;1.50;99.90;;;;;;6271437;28;20059;-79
2023/01/19 07:14:08;;;;;;;17.42;12.10;;;1.50;99.90;;;;;;6270632;28;20057;-79
2023/01/19 07:17:10;;;;;;;15.80;10.48;;;1.50;99.90;;;;;;6272042;28;20052;-80
2023/01/19 07:20:13;;;;;;;16.73;9.65;;;1.50;99.90;;;;;;6271219;28;20056;-79
2023/01/19 07:23:15;;;;;;;13.70;9.57;;;1.60;99.90;;;;;;6272430;28;20130;-79
2023/01/19 07:26:18;;;;;;;12.95;9.80;;;1.60;99.90;;;;;;6273410;28;20075;-79
2023/01/19 07:29:21;;;;;;;15.77;10.38;;;1.60;99.90;;;;;;6273828;28;20053;-79
2023/01/19 07:32:23;;;;;;;13.25;10.15;;;1.60;99.90;;;;;;6274077;28;20056;-79
2023/01/19 07:35:25;;;;;;;14.25;9.10;;;1.60;99.90;;;;;;6275243;28;20044;-78
2023/01/19 07:38:27;;;;;;;11.10;7.63;;;1.60;99.90;;;;;;6271197;28;20045;-79
2023/01/19 07:41:28;;;;;;;15.05;9.50;;;1.60;99.90;;;;;;6272434;28;20053;-79
2023/01/19 07:44:31;;;;;;;13.95;7.65;;;1.60;99.90;;;;;;6272138;28;20656;-79
2023/01/19 07:47:33;;;;;;;14.02;8.85;;;1.70;99.90;;;;;;6270666;28;20041;-79
2023/01/19 07:50:35;;;;;;;12.25;9.07;;;1.70;99.90;;;;;;6272574;28;20060;-79
2023/01/19 07:53:36;;;;;;;12.93;8.35;;;1.80;99.90;;;;;;6273813;28;20052;-79
2023/01/19 07:56:38;;;;;;;12.68;9.95;;;1.80;99.90;;;;;;6273965;28;20052;-79
2023/01/19 07:59:41;;;;;;;12.27;9.10;;;1.90;99.90;;;;;;6276630;28;20060;-79
2023/01/19 08:02:43;;;;;;;13.95;8.93;;;2.00;99.90;;;;;;6278526;28;20123;-79
2023/01/19 08:05:49;;;;;;;11.93;8.30;;;2.00;99.90;;;;;;6278230;28;20056;-79
2023/01/19 08:08:51;;;;;;;11.35;8.13;;;2.00;99.90;;;;;;6277752;28;20177;-79
2023/01/19 08:11:53;;;;;;;13.02;10.13;;;2.00;99.90;;;;;;6279783;28;20056;-79
2023/01/19 08:14:56;;;;;;;12.27;9.57;;;2.00;99.90;;;;;;6276425;28;20059;-79
2023/01/19 08:17:59;;;;;;;11.27;8.45;;;2.00;99.90;;;;;;6251923;28;20050;-79
2023/01/19 08:21:01;;;;;;;14.68;9.20;;;2.10;99.90;;;;;;6252365;28;20053;-78
2023/01/19 08:24:02;;;;;;;13.70;9.57;;;2.10;99.90;;;;;;6252969;28;20057;-79
2023/01/19 08:27:04;;;;;;;15.13;9.88;;;2.20;99.90;;;;;;6251942;28;20049;-79
2023/01/19 08:30:09;;;;;;;10.63;9.10;;;2.20;99.90;;;;;;6253015;28;20044;-79
2023/01/19 08:33:11;;;;;;;12.15;7.50;;;2.20;99.90;;;;;;6251664;28;20056;-79
2023/01/19 08:36:13;;;;;;;10.68;7.40;;;2.20;99.90;;;;;;6251886;28;20049;-79
2023/01/19 08:39:16;;;;;;;9.20;7.22;;;2.30;99.90;;;;;;6251012;28;20368;-79
2023/01/19 08:42:18;;;;;;;10.30;8.45;;;2.30;99.90;;;;;;6251599;28;20053;-79
2023/01/19 08:45:21;;;;;;;12.38;7.88;;;2.40;99.90;;;;;;6251722;28;20092;-79
2023/01/19 08:48:24;;;;;;;12.05;8.25;;;2.50;99.90;;;;;;6251930;28;20050;-79
2023/01/19 08:51:25;;;;;;;9.27;6.00;;;2.50;99.90;;;;;;6250845;28;20056;-79
2023/01/19 08:54:27;;;;;;;11.50;7.45;;;2.60;99.90;;;;;;6251968;28;20045;-79
2023/01/19 08:57:29;;;;;;;11.10;8.13;;;2.60;99.90;;;;;;6241627;28;20163;-79
2023/01/19 09:00:33;;;;;;;10.20;6.65;;;2.60;99.90;;;;;;6279347;28;20037;-79
2023/01/19 09:03:35;;;;;;;12.73;6.43;;;2.70;99.90;;;;;;6267320;28;20049;-79
2023/01/19 09:06:37;;;;;;;11.40;8.80;;;2.70;99.90;;;;;;6253281;28;20044;-79
2023/01/19 09:09:42;;;;;;;11.75;8.15;;;2.70;99.90;;;;;;6275716;28;20083;-80
2023/01/19 09:12:45;;;;;;;8.60;7.57;;;2.70;99.90;;;;;;6276571;28;20052;-79
2023/01/19 09:15:48;;;;;;;11.07;7.28;;;2.70;99.90;;;;;;6279684;28;20430;-79
2023/01/19 09:18:50;;;;;;;11.32;8.75;;;2.70;99.90;;;;;;6279893;28;20064;-79
2023/01/19 09:21:53;;;;;;;11.95;7.80;;;2.80;99.90;;;;;;6278775;28;20049;-79
2023/01/19 09:24:55;;;;;;;12.75;9.60;;;2.90;99.90;;;;;;6277433;28;20045;-79
2023/01/19 09:27:58;;;;;;;8.73;7.45;;;2.90;99.90;;;;;;6275806;28;20071;-78
2023/01/19 09:31:05;;;;;;;12.10;8.02;;;3.00;99.90;;;;;;6277984;28;20049;-82
2023/01/19 09:34:06;;;;;;;8.88;6.22;;;3.20;99.90;;;;;;6278976;28;20069;-79
2023/01/19 09:37:08;;;;;;;11.90;9.13;;;3.30;99.90;;;;;;6277519;28;20045;-78
2023/01/19 09:40:12;;;;;;;11.95;7.20;;;3.60;99.90;;;;;;6275351;28;20045;-78
2023/01/19 09:43:21;;;;;;;12.88;8.23;;;3.90;99.90;;;;;;6274029;28;20068;-78
2023/01/19 09:46:29;;;;;;;12.52;8.35;;;4.10;99.90;;;;;;6274359;28;20045;-78
2023/01/19 09:49:37;;;;;;;11.15;7.93;;;3.90;99.90;;;;;;6273085;28;20414;-77
2023/01/19 09:52:41;;;;;;;;;;;3.80;99.90;;;;;;6271827;28;20056;-77
2023/01/19 09:55:43;;;;;;;13.82;8.52;;;3.70;99.90;;;;;;6270951;28;20385;-77
2023/01/19 09:58:45;;;;;;;13.52;7.10;;;3.60;99.90;;;;;;6271821;28;20075;-78
2023/01/19 10:02:06;;;;;;;11.35;7.75;;;3.50;99.90;;;;;;6272711;28;20495;-78
2023/01/19 10:05:38;;;;;;;11.27;7.20;;;3.40;99.90;;;;;;6273610;28;20045;-77
2023/01/19 10:12:49;;;;;;;12.10;5.57;;;3.20;99.90;;;;;;6272018;28;20522;-78
2023/01/19 10:16:04;;;;;;;13.98;8.05;;;3.20;99.90;;;;;;6271491;28;20048;-77
2023/01/19 10:19:23;;;;;;;11.30;8.10;;;3.00;99.90;;;;;;6267878;28;20128;-77
2023/01/19 10:22:26;;;;;;;14.25;8.45;;;2.90;99.90;;;;;;6271128;28;20083;-77
2023/01/19 10:25:31;;;;;;;12.77;7.82;;;2.80;99.90;;;;;;6272648;28;20045;-77
2023/01/19 10:28:34;;;;;;;13.38;8.25;;;2.70;99.90;;;;;;6271835;28;20041;-77
2023/01/19 10:31:40;;;;;;;12.10;8.90;;;2.40;99.90;;;;;;6273054;28;20163;-78
2023/01/19 10:34:44;;;;;;;13.95;10.75;;;2.30;99.90;;;;;;6272962;28;20040;-77
2023/01/19 10:37:48;;;;;;;14.32;9.57;;;2.30;99.90;;;;;;6273064;28;20037;-77
2023/01/19 10:40:54;;;;;;;14.25;9.85;;;2.30;99.90;;;;;;6269087;28;20052;-77
2023/01/19 10:44:02;;;;;;;18.48;11.13;;;2.30;99.90;;;;;;6270927;28;20530;-77
2023/01/19 10:47:09;;;;;;;15.93;12.80;;;2.30;99.90;;;;;;6271213;28;20139;-77
2023/01/19 10:50:26;;;;;;;11.38;9.02;;;2.30;99.90;;;;;;6270948;28;20045;-77
2023/01/19 10:53:29;;;;;;;15.48;10.10;;;2.40;99.90;;;;;;6271152;28;20059;-78
2023/01/19 10:56:34;;;;;;;14.32;9.73;;;2.50;99.90;;;;;;6270530;28;20060;-78
2023/01/19 10:59:48;;;;;;;15.60;10.98;;;2.50;99.90;;;;;;6268910;28;20063;-77
2023/01/19 11:02:50;;;;;;;15.60;9.57;;;2.60;99.90;;;;;;6271384;28;20171;-77
2023/01/19 11:06:18;;;;;;;11.98;9.20;;;2.60;99.90;;;;;;6271739;28;20045;-77
2023/01/19 11:09:22;;;;;;;12.43;8.80;;;2.70;99.90;;;;;;6245495;28;20100;-77
2023/01/19 11:12:24;;;;;;;13.88;9.73;;;2.70;99.90;;;;;;6257482;28;20132;-77
2023/01/19 11:15:32;;;;;;;11.40;8.77;;;2.70;99.90;;;;;;6267651;28;20052;-77
2023/01/19 11:18:38;;;;;;;14.93;8.48;;;2.80;99.90;;;;;;6267214;28;20036;-77
2023/01/19 11:21:44;;;;;;;14.35;9.15;;;2.80;99.90;;;;;;6271101;28;20088;-77
2023/01/19 11:24:47;;;;;;;11.90;8.18;;;2.90;99.90;;;;;;6270765;28;20045;-77
2023/01/19 11:27:51;;;;;;;12.30;8.95;;;2.90;99.90;;;;;;6269583;28;20051;-78
2023/01/19 11:30:58;;;;;;;10.65;8.32;;;2.90;99.90;;;;;;6270641;28;20071;-78
2023/01/19 11:34:01;;;;;;;11.75;8.90;;;2.90;99.90;;;;;;6270280;28;20196;-77
2023/01/19 11:37:25;;;;;;;19.08;8.75;;;3.00;99.90;;;;;;6269458;28;20406;-78
2023/01/19 11:40:27;;;;;;;12.90;8.50;;;3.10;99.90;;;;;;6270444;28;20045;-78
2023/01/19 11:43:30;;;;;;;9.25;8.13;;;3.10;99.90;;;;;;6271012;28;20045;-77
2023/01/19 11:46:41;;;;;;;10.82;8.52;;;3.10;99.90;;;;;;6270704;28;20176;-77
2023/01/19 11:49:49;;;;;;;11.50;8.07;;;3.20;99.90;;;;;;6269779;28;20045;-78
2023/01/19 11:52:59;;;;;;;12.07;8.73;;;3.30;99.90;;;;;;6268727;28;20155;-78
2023/01/19 11:56:05;;;;;;;15.02;7.78;;;3.30;99.90;;;;;;6269894;28;20060;-78
2023/01/19 11:59:11;;;;;;;14.32;8.73;;;3.20;99.90;;;;;;6268705;28;20052;-77
2023/01/19 12:02:23;;;;;;;15.40;9.93;;;3.20;99.90;;;;;;6270551;28;20056;-77
2023/01/19 12:05:33;;;;;;;14.52;8.40;;;3.20;99.90;;;;;;6269983;28;20052;-78
2023/01/19 12:08:42;;;;;;;10.13;7.97;;;3.30;99.90;;;;;;6267661;28;20045;-78
2023/01/19 12:11:50;;;;;;;16.23;9.02;;;3.20;99.90;;;;;;6268108;28;20060;-78
2023/01/19 12:14:58;;;;;;;11.85;9.07;;;3.20;99.90;;;;;;6270935;28;20147;-78
2023/01/19 12:18:02;;;;;;;14.80;9.43;;;3.20;99.90;;;;;;6269820;28;20045;-78
2023/01/19 12:21:04;;;;;;;11.23;9.45;;;3.30;99.90;;;;;;6270319;28;20425;-78
2023/01/19 12:24:17;;;;;;;31.10;21.35;;;3.30;99.90;;;;;;6267659;28;20419;-78
2023/01/19 12:27:32;;;;;;;20.98;12.63;;;3.40;99.90;;;;;;6267985;28;20075;-79
2023/01/19 12:30:33;;;;;;;23.73;17.42;;;3.40;99.90;;;;;;6271592;28;20056;-79
2023/01/19 12:33:37;;;;;;;16.15;11.05;;;3.50;99.90;;;;;;6270143;28;20045;-78
2023/01/19 12:36:39;;;;;;;23.35;16.27;;;3.50;99.90;;;;;;6271265;28;20045;-79
2023/01/19 12:39:48;;;;;;;12.10;9.32;;;3.50;99.90;;;;;;6274969;28;20056;-79
2023/01/19 12:43:00;;;;;;;14.88;11.90;;;3.50;99.90;;;;;;6276472;28;20045;-80
2023/01/19 12:46:02;;;;;;;127.60;72.03;;;3.40;99.90;;;;;;6273874;28;20064;-79
2023/01/19 12:49:06;;;;;;;22.92;17.35;;;3.50;99.90;;;;;;6274390;28;20545;-79
2023/01/19 12:52:17;;;;;;;18.20;10.93;;;3.50;99.90;;;;;;6274270;28;20049;-79
2023/01/19 12:55:24;;;;;;;10.75;8.98;;;3.50;99.90;;;;;;6275467;28;20041;-79
2023/01/19 12:58:27;;;;;;;12.65;9.32;;;3.50;99.90;;;;;;6274395;28;20052;-78
2023/01/19 13:01:29;;;;;;;24.30;19.67;;;3.30;99.90;;;;;;6276608;28;20498;-78
2023/01/19 13:04:33;;;;;;;17.45;12.07;;;3.30;99.90;;;;;;6275386;28;20045;-78
2023/01/19 13:08:08;;;;;;;17.02;10.63;;;3.30;99.90;;;;;;6275459;28;20051;-79
2023/01/19 13:11:21;;;;;;;23.73;13.80;;;3.30;99.90;;;;;;6274794;28;20078;-80
2023/01/19 13:14:38;;;;;;;14.95;10.98;;;3.30;99.90;;;;;;6275888;28;20053;-79
2023/01/19 13:17:48;;;;;;;13.98;9.68;;;3.30;99.90;;;;;;6275463;28;20410;-80
2023/01/19 13:20:54;;;;;;;18.30;11.93;;;3.30;99.90;;;;;;6272887;28;20056;-79
2023/01/19 13:23:57;;;;;;;16.70;12.40;;;3.30;99.90;;;;;;6276802;28;20045;-80
2023/01/19 13:27:02;;;;;;;14.70;9.73;;;3.30;99.90;;;;;;6276859;28;20084;-78
2023/01/19 13:30:11;;;;;;;48.47;43.33;;;3.30;99.90;;;;;;6274757;28;20115;-78
2023/01/19 13:33:19;;;;;;;15.55;11.55;;;3.30;99.90;;;;;;6275099;28;20069;-79
2023/01/19 13:36:27;;;;;;;;;;;3.30;99.90;;;;;;6273966;28;20052;-79
2023/01/19 13:39:34;;;;;;;17.40;10.87;;;3.60;99.90;;;;;;6273879;28;19921;-78
2023/01/19 13:42:39;;;;;;;16.08;11.68;;;4.30;99.90;;;;;;6274432;28;20048;-79
2023/01/19 13:45:45;;;;;;;16.45;11.30;;;5.10;99.90;;;;;;6273186;28;20522;-78
2023/01/19 13:48:56;;;;;;;12.85;8.73;;;5.10;99.90;;;;;;6271952;28;20052;-77
2023/01/19 13:52:06;;;;;;;15.68;10.85;;;5.30;99.90;;;;;;6274595;28;20045;-78
2023/01/19 13:55:14;;;;;;;20.23;9.23;;;5.20;99.90;;;;;;6273319;28;20045;-78
2023/01/19 13:58:25;;;;;;;15.77;8.27;;;5.10;99.90;;;;;;6273314;28;20045;-78
2023/01/19 14:01:28;;;;;;;16.80;11.32;;;5.00;99.90;;;;;;6273541;28;20080;-78
2023/01/19 14:04:31;;;;;;;13.70;8.45;;;5.10;99.90;;;;;;6272647;28;20992;-78
2023/01/19 14:07:33;;;;;;;11.70;7.57;;;5.60;99.90;;;;;;6272083;28;20049;-78
2023/01/19 14:10:36;;;;;;;10.07;6.38;;;6.20;99.90;;;;;;6273435;28;20498;-79
2023/01/19 14:13:44;;;;;;;11.05;6.40;;;6.60;99.90;;;;;;6273694;28;20064;-79
2023/01/19 14:16:48;;;;;;;;;;;6.90;99.90;;;;;;6274950;28;20080;-79
2023/01/19 14:19:50;;;;;;;7.50;6.20;;;7.20;99.90;;;;;;6272352;28;19933;-80
2023/01/19 14:22:52;;;;;;;9.65;5.88;;;7.60;99.90;;;;;;6273944;28;20047;-81
2023/01/19 14:25:53;;;;;;;8.18;5.75;;;8.00;99.90;;;;;;6273466;28;20052;-79
2023/01/19 14:28:56;;;;;;;8.73;6.45;;;8.40;99.90;;;;;;6271716;28;20047;-79
2023/01/19 14:32:13;;;;;;;6.65;5.38;;;8.50;99.90;;;;;;6275299;28;20049;-79
2023/01/19 14:35:24;;;;;;;7.68;5.65;;;8.80;99.90;;;;;;6272545;28;20053;-79
2023/01/19 14:38:26;;;;;;;10.68;6.80;;;8.50;99.90;;;;;;6274262;28;20041;-80
2023/01/19 14:41:35;;;;;;;9.48;6.75;;;8.30;99.90;;;;;;6275170;28;20052;-79
2023/01/19 14:44:40;;;;;;;8.68;6.63;;;8.00;99.90;;;;;;6272262;28;20056;-78
2023/01/19 14:47:44;;;;;;;8.95;6.60;;;7.80;99.90;;;;;;6276200;28;20049;-79
2023/01/19 14:50:47;;;;;;;8.68;7.25;;;7.60;99.90;;;;;;6275224;28;20041;-79
2023/01/19 14:53:53;;;;;;;21.02;7.97;;;7.10;99.90;;;;;;6276018;28;20847;-79
2023/01/19 14:56:55;;;;;;;12.10;8.38;;;6.50;99.90;;;;;;6276885;28;20545;-78
2023/01/19 14:59:58;;;;;;;9.73;7.40;;;6.00;99.90;;;;;;6276246;28;20530;-81
2023/01/19 15:02:59;;;;;;;11.05;8.50;;;5.60;99.90;;;;;;6273899;28;20100;-79
2023/01/19 15:06:01;;;;;;;10.95;6.65;;;5.40;99.90;;;;;;6277805;28;20049;-79
2023/01/19 15:09:03;;;;;;;9.35;8.25;;;5.30;99.90;;;;;;6274486;28;20041;-77
2023/01/19 15:12:05;;;;;;;11.77;8.02;;;5.00;99.90;;;;;;6273010;28;20071;-78
2023/01/19 15:15:14;;;;;;;9.63;7.28;;;4.80;99.90;;;;;;6275517;28;20041;-78
2023/01/19 15:18:19;;;;;;;11.30;7.47;;;4.50;99.90;;;;;;6273191;28;20154;-80
2023/01/19 15:21:25;;;;;;;16.10;8.68;;;4.30;99.90;;;;;;6272903;28;20592;-79
2023/01/19 15:24:26;;;;;;;11.77;7.97;;;4.10;99.90;;;;;;6275208;28;20055;-78
2023/01/19 15:27:28;;;;;;;12.75;8.07;;;3.80;99.90;;;;;;6273592;28;20045;-78
2023/01/19 15:30:32;;;;;;;10.05;7.28;;;3.60;99.90;;;;;;6274931;28;20048;-78
2023/01/19 15:33:34;;;;;;;13.13;7.85;;;3.40;99.90;;;;;;6272191;28;20040;-78
2023/01/19 15:36:35;;;;;;;13.07;8.57;;;3.30;99.90;;;;;;6277502;28;20089;-78
2023/01/19 15:39:38;;;;;;;14.95;8.95;;;3.10;99.90;;;;;;6276601;28;20048;-79
2023/01/19 15:42:40;;;;;;;11.57;8.02;;;2.90;99.90;;;;;;6276334;28;20040;-79
2023/01/19 15:45:46;;;;;;;14.15;9.93;;;2.80;99.90;;;;;;6277118;28;20079;-79
2023/01/19 15:48:49;;;;;;;11.55;7.32;;;2.70;99.90;;;;;;6273994;28;20037;-78
2023/01/19 15:51:50;;;;;;;15.63;7.53;;;2.60;99.90;;;;;;6275679;28;20049;-78
2023/01/19 15:54:52;;;;;;;11.02;7.57;;;2.40;99.90;;;;;;6274678;28;20045;-78
2023/01/19 15:57:57;;;;;;;19.80;8.25;;;2.30;99.90;;;;;;6276083;28;20057;-80
2023/01/19 16:01:00;;;;;;;14.73;7.82;;;2.20;99.90;;;;;;6268519;28;20049;-78
2023/01/19 16:04:03;;;;;;;11.88;8.05;;;2.10;99.90;;;;;;6269167;28;20179;-77
2023/01/19 16:07:05;;;;;;;12.98;9.02;;;2.00;99.90;;;;;;6269172;28;20045;-77
2023/01/19 16:10:08;;;;;;;13.98;8.70;;;1.90;99.90;;;;;;6268440;28;20060;-77
2023/01/19 16:13:11;;;;;;;13.27;8.65;;;1.80;99.90;;;;;;6269233;28;20057;-77